sensor_id;sensor_type;location;lat;lon;timestamp;noise_LAeq;noise_LA_min;noise_LA_max;noise_LA01;noise_LA95
53702;Laerm;39594;52.194;9.886;2022-09-12T00:01:14;42.05;35.36;47.28;;
53702;Laerm;39594;52.194;9.886;2022-09-12T00:03:40;41.19;35.36;44.97;;
53702;Laerm;39594;52.194;9.886;2022-09-12T00:06:10;52.36;34.31;70.84;;
53702;Laerm;39594;52.194;9.886;2022-09-12T00:08:35;39.73;34.31;43.90;;
53702;Laerm;39594;52.194;9.886;2022-09-12T00:11:03;39.77;35.04;42.59;;
53702;Laerm;39594;52.194;9.886;2022-09-12T00:13:28;39.08;33.90;42.00;;
53702;Laerm;39594;52.194;9.886;2022-09-12T00:15:53;42.71;35.66;46.48;;
53702;Laerm;39594;52.194;9.886;2022-09-12T00:18:19;39.99;35.04;42.98;;
53702;Laerm;39594;52.194;9.886;2022-09-12T00:20:45;39.81;33.97;45.89;;
53702;Laerm;39594;52.194;9.886;2022-09-12T00:23:10;57.94;35.36;74.91;;
53702;Laerm;39594;52.194;9.886;2022-09-12T00:25:45;38.96;33.90;41.33;;
53702;Laerm;39594;52.194;9.886;2022-09-12T00:28:11;39.93;35.66;42.82;;
53702;Laerm;39594;52.194;9.886;2022-09-12T00:30:44;39.07;34.69;42.47;;
53702;Laerm;39594;52.194;9.886;2022-09-12T00:33:09;40.94;33.90;48.29;;
53702;Laerm;39594;52.194;9.886;2022-09-12T00:35:47;38.34;32.93;42.16;;
53702;Laerm;39594;52.194;9.886;2022-09-12T00:38:12;39.00;32.93;42.59;;
53702;Laerm;39594;52.194;9.886;2022-09-12T00:40:38;39.22;35.04;42.98;;
53702;Laerm;39594;52.194;9.886;2022-09-12T00:43:04;38.99;32.93;42.03;;
53702;Laerm;39594;52.194;9.886;2022-09-12T00:45:29;53.53;34.69;72.40;;
53702;Laerm;39594;52.194;9.886;2022-09-12T00:47:55;40.03;35.94;42.42;;
53702;Laerm;39594;52.194;9.886;2022-09-12T00:50:22;39.71;34.69;42.03;;
53702;Laerm;39594;52.194;9.886;2022-09-12T00:52:49;39.70;35.36;42.35;;
53702;Laerm;39594;52.194;9.886;2022-09-12T00:58:18;42.09;35.66;48.57;;
53702;Laerm;39594;52.194;9.886;2022-09-12T01:00:45;38.42;30.89;41.68;;
53702;Laerm;39594;52.194;9.886;2022-09-12T01:03:12;38.55;30.89;41.61;;
53702;Laerm;39594;52.194;9.886;2022-09-12T01:05:39;38.59;32.35;41.82;;
53702;Laerm;39594;52.194;9.886;2022-09-12T01:08:05;52.55;33.90;71.78;;
53702;Laerm;39594;52.194;9.886;2022-09-12T01:10:30;51.44;38.95;68.22;;
53702;Laerm;39594;52.194;9.886;2022-09-12T01:12:55;42.32;34.69;50.87;;
53702;Laerm;39594;52.194;9.886;2022-09-12T01:15:21;43.15;35.04;54.14;;
53702;Laerm;39594;52.194;9.886;2022-09-12T01:20:53;39.02;30.89;41.89;;
53702;Laerm;39594;52.194;9.886;2022-09-12T01:28:38;38.66;32.35;42.41;;
53702;Laerm;39594;52.194;9.886;2022-09-12T01:31:15;42.60;36.20;45.57;;
53702;Laerm;39594;52.194;9.886;2022-09-12T01:33:54;39.88;33.90;44.39;;
53702;Laerm;39594;52.194;9.886;2022-09-12T01:36:28;38.94;34.31;42.47;;
53702;Laerm;39594;52.194;9.886;2022-09-12T01:46:40;39.08;34.31;42.71;;
53702;Laerm;39594;52.194;9.886;2022-09-12T01:49:23;40.59;35.94;43.34;;
53702;Laerm;39594;52.194;9.886;2022-09-12T01:51:54;39.82;35.04;42.71;;
53702;Laerm;39594;52.194;9.886;2022-09-12T01:54:23;39.56;34.31;43.77;;
53702;Laerm;39594;52.194;9.886;2022-09-12T01:56:50;58.11;35.36;77.39;;
53702;Laerm;39594;52.194;9.886;2022-09-12T01:59:24;39.62;33.90;41.82;;
53702;Laerm;39594;52.194;9.886;2022-09-12T02:01:54;39.86;34.69;51.69;;
53702;Laerm;39594;52.194;9.886;2022-09-12T02:04:22;41.91;35.66;45.72;;
53702;Laerm;39594;52.194;9.886;2022-09-12T02:06:51;41.13;35.66;44.73;;
53702;Laerm;39594;52.194;9.886;2022-09-12T02:09:23;52.80;34.69;68.68;;
53702;Laerm;39594;52.194;9.886;2022-09-12T02:11:51;55.84;36.91;74.83;;
53702;Laerm;39594;52.194;9.886;2022-09-12T02:14:22;41.43;37.12;45.11;;
53702;Laerm;39594;52.194;9.886;2022-09-12T02:16:49;51.15;37.52;67.81;;
53702;Laerm;39594;52.194;9.886;2022-09-12T02:19:17;39.83;34.69;42.19;;
53702;Laerm;39594;52.194;9.886;2022-09-12T02:21:45;39.28;35.36;42.35;;
53702;Laerm;39594;52.194;9.886;2022-09-12T02:24:13;53.98;35.94;69.15;;
53702;Laerm;39594;52.194;9.886;2022-09-12T02:26:43;59.21;35.94;77.33;;
53702;Laerm;39594;52.194;9.886;2022-09-12T02:29:10;39.65;35.94;44.80;;
53702;Laerm;39594;52.194;9.886;2022-09-12T02:31:45;44.23;34.69;54.20;;
53702;Laerm;39594;52.194;9.886;2022-09-12T02:39:23;50.49;35.94;69.58;;
53702;Laerm;39594;52.194;9.886;2022-09-12T02:41:49;42.37;37.52;45.17;;
53702;Laerm;39594;52.194;9.886;2022-09-12T02:44:15;56.24;36.20;72.31;;
53702;Laerm;39594;52.194;9.886;2022-09-12T02:46:42;52.62;35.66;70.95;;
53702;Laerm;39594;52.194;9.886;2022-09-12T02:49:08;49.09;35.66;63.56;;
53702;Laerm;39594;52.194;9.886;2022-09-12T02:51:33;59.98;37.32;77.20;;
53702;Laerm;39594;52.194;9.886;2022-09-12T02:53:59;49.03;36.45;66.55;;
53702;Laerm;39594;52.194;9.886;2022-09-12T02:56:26;54.75;35.66;70.84;;
53702;Laerm;39594;52.194;9.886;2022-09-12T02:58:52;52.31;36.69;70.14;;
53702;Laerm;39594;52.194;9.886;2022-09-12T03:03:53;46.72;38.05;62.97;;
53702;Laerm;39594;52.194;9.886;2022-09-12T03:06:24;56.13;37.52;73.83;;
53702;Laerm;39594;52.194;9.886;2022-09-12T03:16:41;57.58;37.88;71.82;;
53702;Laerm;39594;52.194;9.886;2022-09-12T03:19:25;54.25;37.52;70.37;;
53702;Laerm;39594;52.194;9.886;2022-09-12T03:21:57;62.67;40.54;74.54;;
53702;Laerm;39594;52.194;9.886;2022-09-12T03:24:33;61.15;37.32;76.72;;
53702;Laerm;39594;52.194;9.886;2022-09-12T03:27:21;60.46;39.08;73.88;;
53702;Laerm;39594;52.194;9.886;2022-09-12T03:29:49;57.26;37.70;72.60;;
53702;Laerm;39594;52.194;9.886;2022-09-12T03:32:15;61.80;39.81;76.29;;
53702;Laerm;39594;52.194;9.886;2022-09-12T03:34:40;59.34;38.67;72.73;;
53702;Laerm;39594;52.194;9.886;2022-09-12T03:37:06;63.93;41.06;76.17;;
53702;Laerm;39594;52.194;9.886;2022-09-12T03:39:34;59.81;38.95;73.52;;
53702;Laerm;39594;52.194;9.886;2022-09-12T03:41:59;61.09;39.46;73.05;;
53702;Laerm;39594;52.194;9.886;2022-09-12T03:44:24;63.50;40.23;80.28;;
53702;Laerm;39594;52.194;9.886;2022-09-12T03:46:49;61.88;40.23;73.86;;
53702;Laerm;39594;52.194;9.886;2022-09-12T03:49:15;55.41;39.70;69.35;;
53702;Laerm;39594;52.194;9.886;2022-09-12T03:51:41;56.20;39.81;69.61;;
53702;Laerm;39594;52.194;9.886;2022-09-12T03:54:07;63.88;39.70;78.21;;
53702;Laerm;39594;52.194;9.886;2022-09-12T03:56:32;62.16;40.53;73.05;;
53702;Laerm;39594;52.194;9.886;2022-09-12T03:58:58;61.86;39.34;77.34;;
53702;Laerm;39594;52.194;9.886;2022-09-12T04:01:23;59.34;39.81;72.55;;
53702;Laerm;39594;52.194;9.886;2022-09-12T04:03:49;60.91;39.70;73.50;;
53702;Laerm;39594;52.194;9.886;2022-09-12T04:06:15;60.28;39.81;72.55;;
53702;Laerm;39594;52.194;9.886;2022-09-12T04:08:41;61.62;40.71;74.53;;
53702;Laerm;39594;52.194;9.886;2022-09-12T04:11:08;63.51;38.95;77.49;;
53702;Laerm;39594;52.194;9.886;2022-09-12T04:13:34;61.55;40.13;74.39;;
53702;Laerm;39594;52.194;9.886;2022-09-12T04:16:00;59.59;39.81;73.65;;
53702;Laerm;39594;52.194;9.886;2022-09-12T04:18:25;59.95;39.34;72.54;;
53702;Laerm;39594;52.194;9.886;2022-09-12T04:20:51;61.52;40.08;73.27;;
53702;Laerm;39594;52.194;9.886;2022-09-12T04:23:16;62.19;40.33;75.72;;
53702;Laerm;39594;52.194;9.886;2022-09-12T04:25:41;59.20;40.33;71.46;;
53702;Laerm;39594;52.194;9.886;2022-09-12T04:28:06;62.10;40.79;74.90;;
53702;Laerm;39594;52.194;9.886;2022-09-12T04:30:32;66.22;41.61;82.89;;
53702;Laerm;39594;52.194;9.886;2022-09-12T04:32:58;61.00;42.41;73.11;;
53702;Laerm;39594;52.194;9.886;2022-09-12T04:35:23;62.61;41.75;72.90;;
53702;Laerm;39594;52.194;9.886;2022-09-12T04:37:48;62.97;41.53;72.95;;
53702;Laerm;39594;52.194;9.886;2022-09-12T04:40:13;66.87;42.71;78.01;;
53702;Laerm;39594;52.194;9.886;2022-09-12T04:42:39;64.96;44.39;77.78;;
53702;Laerm;39594;52.194;9.886;2022-09-12T04:45:04;65.34;45.63;75.05;;
53702;Laerm;39594;52.194;9.886;2022-09-12T04:47:30;63.74;43.14;74.53;;
53702;Laerm;39594;52.194;9.886;2022-09-12T04:49:55;65.58;44.58;78.40;;
53702;Laerm;39594;52.194;9.886;2022-09-12T04:52:20;62.68;43.19;73.94;;
53702;Laerm;39594;52.194;9.886;2022-09-12T04:54:45;64.20;41.46;79.60;;
53702;Laerm;39594;52.194;9.886;2022-09-12T04:57:11;63.62;42.35;74.92;;
53702;Laerm;39594;52.194;9.886;2022-09-12T04:59:37;60.45;41.68;75.73;;
53702;Laerm;39594;52.194;9.886;2022-09-12T05:02:02;62.49;40.89;76.91;;
53702;Laerm;39594;52.194;9.886;2022-09-12T05:04:27;63.98;41.46;76.63;;
53702;Laerm;39594;52.194;9.886;2022-09-12T05:06:52;64.67;41.75;77.96;;
53702;Laerm;39594;52.194;9.886;2022-09-12T05:09:17;63.41;40.71;73.81;;
53702;Laerm;39594;52.194;9.886;2022-09-12T05:11:43;62.52;41.53;73.03;;
53702;Laerm;39594;52.194;9.886;2022-09-12T05:14:09;64.75;41.06;77.24;;
53702;Laerm;39594;52.194;9.886;2022-09-12T05:16:34;63.73;40.71;75.14;;
53702;Laerm;39594;52.194;9.886;2022-09-12T05:18:59;64.93;42.35;76.94;;
53702;Laerm;39594;52.194;9.886;2022-09-12T05:21:25;66.51;42.71;80.16;;
53702;Laerm;39594;52.194;9.886;2022-09-12T05:23:54;65.12;43.58;76.34;;
53702;Laerm;39594;52.194;9.886;2022-09-12T05:26:20;64.14;43.49;75.10;;
53702;Laerm;39594;52.194;9.886;2022-09-12T05:28:46;66.14;44.43;79.58;;
53702;Laerm;39594;52.194;9.886;2022-09-12T05:33:37;64.47;43.09;75.83;;
53702;Laerm;39594;52.194;9.886;2022-09-12T05:36:19;62.75;43.81;74.80;;
53702;Laerm;39594;52.194;9.886;2022-09-12T05:38:44;65.28;43.04;81.75;;
53702;Laerm;39594;52.194;9.886;2022-09-12T05:41:14;65.09;41.53;82.31;;
53702;Laerm;39594;52.194;9.886;2022-09-12T05:43:40;63.71;41.46;75.75;;
53702;Laerm;39594;52.194;9.886;2022-09-12T05:46:19;67.12;44.19;78.44;;
53702;Laerm;39594;52.194;9.886;2022-09-12T05:48:45;65.63;42.53;77.89;;
53702;Laerm;39594;52.194;9.886;2022-09-12T05:51:18;64.56;43.24;75.02;;
53702;Laerm;39594;52.194;9.886;2022-09-12T05:53:45;65.31;42.59;80.27;;
53702;Laerm;39594;52.194;9.886;2022-09-12T05:58:42;63.04;40.43;75.61;;
53702;Laerm;39594;52.194;9.886;2022-09-12T06:01:09;65.92;41.89;74.82;;
53702;Laerm;39594;52.194;9.886;2022-09-12T06:03:45;63.49;41.75;77.20;;
53702;Laerm;39594;52.194;9.886;2022-09-12T06:06:11;62.83;40.98;77.29;;
53702;Laerm;39594;52.194;9.886;2022-09-12T06:08:38;59.99;42.65;72.03;;
53702;Laerm;39594;52.194;9.886;2022-09-12T06:11:04;64.21;41.96;76.74;;
53702;Laerm;39594;52.194;9.886;2022-09-12T06:13:30;63.95;39.08;76.56;;
53702;Laerm;39594;52.194;9.886;2022-09-12T06:16:00;63.57;40.53;78.57;;
53702;Laerm;39594;52.194;9.886;2022-09-12T06:18:26;58.99;41.30;71.02;;
53702;Laerm;39594;52.194;9.886;2022-09-12T06:20:52;63.39;41.38;77.41;;
53702;Laerm;39594;52.194;9.886;2022-09-12T06:23:17;62.45;41.75;76.54;;
53702;Laerm;39594;52.194;9.886;2022-09-12T06:25:46;64.01;41.30;81.22;;
53702;Laerm;39594;52.194;9.886;2022-09-12T06:28:12;60.74;40.23;71.89;;
53702;Laerm;39594;52.194;9.886;2022-09-12T06:30:37;63.72;40.53;79.14;;
53702;Laerm;39594;52.194;9.886;2022-09-12T06:33:02;58.36;40.03;70.74;;
53702;Laerm;39594;52.194;9.886;2022-09-12T06:35:28;67.14;43.49;85.16;;
53702;Laerm;39594;52.194;9.886;2022-09-12T06:37:53;59.43;39.46;72.52;;
53702;Laerm;39594;52.194;9.886;2022-09-12T06:40:18;64.97;41.14;79.74;;
53702;Laerm;39594;52.194;9.886;2022-09-12T06:42:43;64.27;41.22;79.88;;
53702;Laerm;39594;52.194;9.886;2022-09-12T06:45:09;64.26;42.65;74.02;;
53702;Laerm;39594;52.194;9.886;2022-09-12T06:47:35;61.32;41.75;73.67;;
53702;Laerm;39594;52.194;9.886;2022-09-12T06:50:01;65.07;41.61;78.70;;
53702;Laerm;39594;52.194;9.886;2022-09-12T06:52:26;61.72;39.81;74.68;;
53702;Laerm;39594;52.194;9.886;2022-09-12T06:54:53;63.50;41.30;79.53;;
53702;Laerm;39594;52.194;9.886;2022-09-12T06:57:18;63.36;41.89;76.59;;
53702;Laerm;39594;52.194;9.886;2022-09-12T06:59:43;63.75;40.23;79.39;;
53702;Laerm;39594;52.194;9.886;2022-09-12T07:02:08;64.38;40.53;78.23;;
53702;Laerm;39594;52.194;9.886;2022-09-12T07:04:34;62.78;40.33;76.54;;
53702;Laerm;39594;52.194;9.886;2022-09-12T07:07:00;61.50;40.80;71.81;;
53702;Laerm;39594;52.194;9.886;2022-09-12T07:09:26;66.75;42.47;79.68;;
53702;Laerm;39594;52.194;9.886;2022-09-12T07:11:51;60.75;41.89;73.20;;
53702;Laerm;39594;52.194;9.886;2022-09-12T07:14:16;65.00;38.81;79.20;;
53702;Laerm;39594;52.194;9.886;2022-09-12T07:16:42;64.66;41.46;78.48;;
53702;Laerm;39594;52.194;9.886;2022-09-12T07:19:07;62.95;40.80;75.89;;
53702;Laerm;39594;52.194;9.886;2022-09-12T07:21:33;59.50;40.33;71.07;;
53702;Laerm;39594;52.194;9.886;2022-09-12T07:24:03;63.97;39.34;79.80;;
53702;Laerm;39594;52.194;9.886;2022-09-12T07:26:28;64.13;38.21;79.30;;
53702;Laerm;39594;52.194;9.886;2022-09-12T07:28:54;63.41;38.05;78.47;;
53702;Laerm;39594;52.194;9.886;2022-09-12T07:31:20;57.52;36.69;68.65;;
53702;Laerm;39594;52.194;9.886;2022-09-12T07:33:46;66.99;39.68;80.70;;
53702;Laerm;39594;52.194;9.886;2022-09-12T07:36:12;62.13;39.81;76.05;;
53702;Laerm;39594;52.194;9.886;2022-09-12T07:38:44;60.14;39.34;74.45;;
53702;Laerm;39594;52.194;9.886;2022-09-12T07:41:16;63.46;40.33;77.78;;
53702;Laerm;39594;52.194;9.886;2022-09-12T07:43:41;65.25;43.63;77.94;;
53702;Laerm;39594;52.194;9.886;2022-09-12T07:46:07;60.47;38.37;72.08;;
53702;Laerm;39594;52.194;9.886;2022-09-12T07:48:32;64.56;41.75;81.32;;
53702;Laerm;39594;52.194;9.886;2022-09-12T07:50:58;65.28;41.14;78.00;;
53702;Laerm;39594;52.194;9.886;2022-09-12T07:53:25;62.96;38.37;75.29;;
53702;Laerm;39594;52.194;9.886;2022-09-12T07:55:56;57.16;38.05;71.36;;
53702;Laerm;39594;52.194;9.886;2022-09-12T07:58:22;63.07;39.70;79.40;;
53702;Laerm;39594;52.194;9.886;2022-09-12T08:00:47;59.82;37.52;71.80;;
53702;Laerm;39594;52.194;9.886;2022-09-12T08:03:12;59.26;37.32;72.64;;
53702;Laerm;39594;52.194;9.886;2022-09-12T08:05:38;63.57;37.88;82.45;;
53702;Laerm;39594;52.194;9.886;2022-09-12T08:08:03;61.13;39.21;77.49;;
53702;Laerm;39594;52.194;9.886;2022-09-12T08:10:28;64.90;39.70;81.48;;
53702;Laerm;39594;52.194;9.886;2022-09-12T08:12:53;62.71;37.70;79.03;;
53702;Laerm;39594;52.194;9.886;2022-09-12T08:15:18;61.59;38.52;73.88;;
53702;Laerm;39594;52.194;9.886;2022-09-12T08:17:44;64.10;40.80;77.26;;
53702;Laerm;39594;52.194;9.886;2022-09-12T08:20:09;59.77;37.88;76.25;;
53702;Laerm;39594;52.194;9.886;2022-09-12T08:22:36;61.53;36.91;78.47;;
53702;Laerm;39594;52.194;9.886;2022-09-12T08:25:01;58.85;39.92;72.69;;
53702;Laerm;39594;52.194;9.886;2022-09-12T08:27:26;64.50;38.52;79.04;;
53702;Laerm;39594;52.194;9.886;2022-09-12T08:29:51;62.55;37.52;75.44;;
53702;Laerm;39594;52.194;9.886;2022-09-12T08:32:17;64.87;39.70;77.88;;
53702;Laerm;39594;52.194;9.886;2022-09-12T08:34:42;64.42;39.70;78.69;;
53702;Laerm;39594;52.194;9.886;2022-09-12T08:37:08;62.89;40.89;77.13;;
53702;Laerm;39594;52.194;9.886;2022-09-12T08:39:33;63.64;37.88;77.72;;
53702;Laerm;39594;52.194;9.886;2022-09-12T08:42:00;64.87;41.30;78.98;;
53702;Laerm;39594;52.194;9.886;2022-09-12T08:47:20;57.93;38.52;72.46;;
53702;Laerm;39594;52.194;9.886;2022-09-12T08:52:21;63.17;40.03;73.77;;
53702;Laerm;39594;52.194;9.886;2022-09-12T08:54:48;61.41;40.43;74.55;;
53702;Laerm;39594;52.194;9.886;2022-09-12T08:57:14;61.72;41.14;75.19;;
53702;Laerm;39594;52.194;9.886;2022-09-12T08:59:43;62.46;38.05;75.82;;
53702;Laerm;39594;52.194;9.886;2022-09-12T09:07:25;61.16;38.21;80.31;;
53702;Laerm;39594;52.194;9.886;2022-09-12T09:17:49;57.31;38.05;70.23;;
53702;Laerm;39594;52.194;9.886;2022-09-12T09:20:32;60.13;36.45;74.95;;
53702;Laerm;39594;52.194;9.886;2022-09-12T09:23:02;60.91;40.62;76.53;;
53702;Laerm;39594;52.194;9.886;2022-09-12T09:28:03;58.76;38.21;73.15;;
53702;Laerm;39594;52.194;9.886;2022-09-12T09:30:29;60.62;38.67;74.88;;
53702;Laerm;39594;52.194;9.886;2022-09-12T09:32:57;61.05;39.08;77.71;;
53702;Laerm;39594;52.194;9.886;2022-09-12T09:38:04;57.54;37.70;73.21;;
53702;Laerm;39594;52.194;9.886;2022-09-12T09:40:51;63.61;41.53;75.76;;
53702;Laerm;39594;52.194;9.886;2022-09-12T09:43:21;59.20;39.58;73.06;;
53702;Laerm;39594;52.194;9.886;2022-09-12T09:45:48;61.45;38.37;77.73;;
53702;Laerm;39594;52.194;9.886;2022-09-12T09:50:38;63.20;37.32;78.50;;
53702;Laerm;39594;52.194;9.886;2022-09-12T09:53:04;60.63;36.91;77.59;;
53702;Laerm;39594;52.194;9.886;2022-09-12T09:55:38;58.97;39.08;70.80;;
53702;Laerm;39594;52.194;9.886;2022-09-12T09:58:04;64.69;39.57;78.12;;
53702;Laerm;39594;52.194;9.886;2022-09-12T10:00:30;60.82;37.88;74.24;;
53702;Laerm;39594;52.194;9.886;2022-09-12T10:03:00;61.31;37.12;75.57;;
53702;Laerm;39594;52.194;9.886;2022-09-12T10:05:26;61.48;40.80;76.62;;
53702;Laerm;39594;52.194;9.886;2022-09-12T10:07:52;56.89;39.21;72.75;;
53702;Laerm;39594;52.194;9.886;2022-09-12T10:10:18;58.77;40.71;69.97;;
53702;Laerm;39594;52.194;9.886;2022-09-12T10:12:43;60.21;38.05;74.11;;
53702;Laerm;39594;52.194;9.886;2022-09-12T10:17:43;62.07;42.53;74.86;;
53702;Laerm;39594;52.194;9.886;2022-09-12T10:22:52;60.64;42.22;73.02;;
53702;Laerm;39594;52.194;9.886;2022-09-12T10:25:18;62.48;41.61;76.40;;
53702;Laerm;39594;52.194;9.886;2022-09-12T10:27:44;63.15;41.81;74.89;;
53702;Laerm;39594;52.194;9.886;2022-09-12T10:30:17;62.55;42.09;78.08;;
53702;Laerm;39594;52.194;9.886;2022-09-12T10:32:44;62.99;42.53;76.55;;
53702;Laerm;39594;52.194;9.886;2022-09-12T10:37:42;64.28;37.88;80.54;;
53702;Laerm;39594;52.194;9.886;2022-09-12T10:42:55;63.39;38.81;78.58;;
53702;Laerm;39594;52.194;9.886;2022-09-12T10:47:50;63.91;40.03;83.46;;
53702;Laerm;39594;52.194;9.886;2022-09-12T10:52:44;63.47;38.52;79.36;;
53702;Laerm;39594;52.194;9.886;2022-09-12T10:55:13;63.99;41.22;77.20;;
53702;Laerm;39594;52.194;9.886;2022-09-12T10:57:42;64.02;38.05;78.53;;
53702;Laerm;39594;52.194;9.886;2022-09-12T11:00:14;59.75;39.81;71.54;;
53702;Laerm;39594;52.194;9.886;2022-09-12T11:05:21;60.01;38.95;71.99;;
53702;Laerm;39594;52.194;9.886;2022-09-12T11:08:00;64.72;39.08;78.42;;
53702;Laerm;39594;52.194;9.886;2022-09-12T11:10:39;61.57;40.53;78.53;;
53702;Laerm;39594;52.194;9.886;2022-09-12T11:20:41;66.73;40.43;83.38;;
53702;Laerm;39594;52.194;9.886;2022-09-12T11:23:29;62.98;41.30;76.66;;
53702;Laerm;39594;52.194;9.886;2022-09-12T11:28:39;61.47;37.12;75.69;;
53702;Laerm;39594;52.194;9.886;2022-09-12T11:33:40;60.63;37.32;72.64;;
53702;Laerm;39594;52.194;9.886;2022-09-12T11:36:11;62.09;37.32;76.27;;
53702;Laerm;39594;52.194;9.886;2022-09-12T11:38:49;61.10;40.43;71.06;;
53702;Laerm;39594;52.194;9.886;2022-09-12T11:41:25;61.35;38.67;72.32;;
53702;Laerm;39594;52.194;9.886;2022-09-12T11:43:55;58.75;39.34;73.90;;
53702;Laerm;39594;52.194;9.886;2022-09-12T11:46:42;63.73;39.34;75.54;;
53702;Laerm;39594;52.194;9.886;2022-09-12T11:51:59;58.64;37.32;69.28;;
53702;Laerm;39594;52.194;9.886;2022-09-12T11:54:29;60.95;41.38;75.05;;
53702;Laerm;39594;52.194;9.886;2022-09-12T11:57:03;62.48;37.52;82.28;;
53702;Laerm;39594;52.194;9.886;2022-09-12T12:02:18;62.95;39.58;76.91;;
53702;Laerm;39594;52.194;9.886;2022-09-12T12:05:01;59.10;41.14;75.05;;
53702;Laerm;39594;52.194;9.886;2022-09-12T12:07:29;59.24;40.80;84.46;;
53702;Laerm;39594;52.194;9.886;2022-09-12T12:09:58;57.84;42.13;70.44;;
53702;Laerm;39594;52.194;9.886;2022-09-12T12:12:24;62.84;40.89;79.86;;
53702;Laerm;39594;52.194;9.886;2022-09-12T12:14:50;59.94;37.70;74.55;;
53702;Laerm;39594;52.194;9.886;2022-09-12T12:17:20;60.68;37.88;74.78;;
53702;Laerm;39594;52.194;9.886;2022-09-12T12:19:47;61.61;37.53;75.38;;
53702;Laerm;39594;52.194;9.886;2022-09-12T12:22:21;61.04;38.52;73.68;;
53702;Laerm;39594;52.194;9.886;2022-09-12T12:30:07;61.13;37.32;80.12;;
53702;Laerm;39594;52.194;9.886;2022-09-12T12:32:48;58.79;41.38;69.10;;
53702;Laerm;39594;52.194;9.886;2022-09-12T12:35:35;59.58;38.67;75.84;;
53702;Laerm;39594;52.194;9.886;2022-09-12T12:38:02;61.86;38.67;77.59;;
53702;Laerm;39594;52.194;9.886;2022-09-12T12:40:28;64.50;38.05;78.30;;
53702;Laerm;39594;52.194;9.886;2022-09-12T12:42:58;61.47;37.70;77.12;;
53702;Laerm;39594;52.194;9.886;2022-09-12T12:48:06;59.60;40.03;69.68;;
53702;Laerm;39594;52.194;9.886;2022-09-12T12:50:32;62.86;38.67;81.39;;
53702;Laerm;39594;52.194;9.886;2022-09-12T12:57:53;61.18;38.99;74.12;;
53702;Laerm;39594;52.194;9.886;2022-09-12T13:02:49;62.58;40.89;76.65;;
53702;Laerm;39594;52.194;9.886;2022-09-12T13:05:19;61.17;42.71;73.88;;
53702;Laerm;39594;52.194;9.886;2022-09-12T13:07:45;64.06;41.46;75.94;;
53702;Laerm;39594;52.194;9.886;2022-09-12T13:10:22;63.90;40.03;80.84;;
53702;Laerm;39594;52.194;9.886;2022-09-12T13:12:48;60.86;39.58;70.85;;
53702;Laerm;39594;52.194;9.886;2022-09-12T13:17:58;61.50;38.37;74.33;;
53702;Laerm;39594;52.194;9.886;2022-09-12T13:20:25;61.70;39.70;71.96;;
53702;Laerm;39594;52.194;9.886;2022-09-12T13:22:52;60.86;40.71;72.69;;
53702;Laerm;39594;52.194;9.886;2022-09-12T13:27:55;62.96;39.92;77.88;;
53702;Laerm;39594;52.194;9.886;2022-09-12T13:30:20;62.32;38.05;71.38;;
53702;Laerm;39594;52.194;9.886;2022-09-12T13:32:45;63.74;39.21;80.43;;
53702;Laerm;39594;52.194;9.886;2022-09-12T13:35:18;63.73;35.94;76.59;;
53702;Laerm;39594;52.194;9.886;2022-09-12T13:37:47;60.51;35.94;72.03;;
53702;Laerm;39594;52.194;9.886;2022-09-12T13:40:46;60.97;38.05;72.30;;
53702;Laerm;39594;52.194;9.886;2022-09-12T13:43:11;61.51;38.52;74.45;;
53702;Laerm;39594;52.194;9.886;2022-09-12T13:45:37;61.52;37.52;77.86;;
53702;Laerm;39594;52.194;9.886;2022-09-12T13:48:03;62.23;39.81;77.09;;
53702;Laerm;39594;52.194;9.886;2022-09-12T13:50:32;61.17;40.23;71.85;;
53702;Laerm;39594;52.194;9.886;2022-09-12T13:53:02;60.64;38.05;70.50;;
53702;Laerm;39594;52.194;9.886;2022-09-12T13:55:33;60.87;39.34;72.43;;
53702;Laerm;39594;52.194;9.886;2022-09-12T13:58:03;60.56;40.03;70.36;;
53702;Laerm;39594;52.194;9.886;2022-09-12T14:00:30;62.88;42.59;73.01;;
53702;Laerm;39594;52.194;9.886;2022-09-12T14:02:56;64.08;41.89;75.11;;
53702;Laerm;39594;52.194;9.886;2022-09-12T14:05:41;63.37;37.70;75.55;;
53702;Laerm;39594;52.194;9.886;2022-09-12T14:08:08;62.37;39.70;78.90;;
53702;Laerm;39594;52.194;9.886;2022-09-12T14:10:36;61.22;39.58;75.35;;
53702;Laerm;39594;52.194;9.886;2022-09-12T14:13:23;63.30;39.21;74.59;;
53702;Laerm;39594;52.194;9.886;2022-09-12T14:15:48;61.66;37.88;79.32;;
53702;Laerm;39594;52.194;9.886;2022-09-12T14:18:29;62.18;39.70;73.91;;
53702;Laerm;39594;52.194;9.886;2022-09-12T14:21:00;63.05;40.03;75.64;;
53702;Laerm;39594;52.194;9.886;2022-09-12T14:23:31;59.07;36.69;68.87;;
53702;Laerm;39594;52.194;9.886;2022-09-12T14:25:59;62.00;41.06;71.79;;
53702;Laerm;39594;52.194;9.886;2022-09-12T14:28:26;60.79;38.95;71.00;;
53702;Laerm;39594;52.194;9.886;2022-09-12T14:31:04;63.30;38.21;77.70;;
53702;Laerm;39594;52.194;9.886;2022-09-12T14:33:31;62.37;38.81;73.54;;
53702;Laerm;39594;52.194;9.886;2022-09-12T14:36:07;62.96;42.88;70.73;;
53702;Laerm;39594;52.194;9.886;2022-09-12T14:38:34;62.49;39.46;72.37;;
53702;Laerm;39594;52.194;9.886;2022-09-12T14:41:01;63.96;40.03;77.10;;
53702;Laerm;39594;52.194;9.886;2022-09-12T14:43:30;61.86;39.92;72.09;;
53702;Laerm;39594;52.194;9.886;2022-09-12T14:45:57;64.41;40.98;78.46;;
53702;Laerm;39594;52.194;9.886;2022-09-12T14:48:26;63.19;40.43;80.57;;
53702;Laerm;39594;52.194;9.886;2022-09-12T14:50:53;63.43;42.59;76.60;;
53702;Laerm;39594;52.194;9.886;2022-09-12T14:55:54;59.28;39.21;70.47;;
53702;Laerm;39594;52.194;9.886;2022-09-12T15:00:59;58.08;36.91;71.17;;
53702;Laerm;39594;52.194;9.886;2022-09-12T15:03:30;62.80;43.58;73.32;;
53702;Laerm;39594;52.194;9.886;2022-09-12T15:05:55;61.34;38.21;71.24;;
53702;Laerm;39594;52.194;9.886;2022-09-12T15:08:21;61.36;39.92;73.56;;
53702;Laerm;39594;52.194;9.886;2022-09-12T15:10:46;61.95;38.67;72.85;;
53702;Laerm;39594;52.194;9.886;2022-09-12T15:13:13;63.51;38.95;75.50;;
53702;Laerm;39594;52.194;9.886;2022-09-12T15:15:39;59.49;38.67;71.36;;
53702;Laerm;39594;52.194;9.886;2022-09-12T15:18:05;59.02;38.37;77.00;;
53702;Laerm;39594;52.194;9.886;2022-09-12T15:20:30;62.91;39.08;72.93;;
53702;Laerm;39594;52.194;9.886;2022-09-12T15:22:56;60.08;38.52;71.08;;
53702;Laerm;39594;52.194;9.886;2022-09-12T15:25:21;60.84;38.21;71.87;;
53702;Laerm;39594;52.194;9.886;2022-09-12T15:27:46;61.81;36.45;70.81;;
53702;Laerm;39594;52.194;9.886;2022-09-12T15:30:12;59.48;36.20;76.07;;
53702;Laerm;39594;52.194;9.886;2022-09-12T15:32:37;60.38;34.31;78.27;;
53702;Laerm;39594;52.194;9.886;2022-09-12T15:35:07;60.17;35.04;72.35;;
53702;Laerm;39594;52.194;9.886;2022-09-12T15:37:34;60.58;39.58;73.28;;
53702;Laerm;39594;52.194;9.886;2022-09-12T15:39:59;59.57;38.37;70.48;;
53702;Laerm;39594;52.194;9.886;2022-09-12T15:42:26;58.66;36.91;70.31;;
53702;Laerm;39594;52.194;9.886;2022-09-12T15:44:52;58.85;36.10;70.51;;
53702;Laerm;39594;52.194;9.886;2022-09-12T15:47:17;59.79;40.98;71.25;;
53702;Laerm;39594;52.194;9.886;2022-09-12T15:49:43;61.54;41.68;74.32;;
53702;Laerm;39594;52.194;9.886;2022-09-12T15:52:08;61.99;42.29;79.79;;
53702;Laerm;39594;52.194;9.886;2022-09-12T15:54:37;60.46;40.98;73.06;;
53702;Laerm;39594;52.194;9.886;2022-09-12T15:57:03;61.51;41.14;72.51;;